メインページ
METAR-TAF:

METAR-TAF

空港 :

ブーシェフル, イラン

緯度: 28-59N, 経度: 050-50E, 海抜: 19m

現時点の気象観測

当レポートは31分前の18:00(UTC)に作成
東/南東の風 10kt
気温 18°C
湿度 77%
気圧 1017 hPa
視程: 7000m
高度3000ftの雲は散在している, 積乱雲.
高度4000ftの雲は散在している
高度9000ftの曇り

METAR: OIBB 171800Z 12010KT 7000 SCT030CB SCT040 OVC090 18/14 Q1017 A3004

時間: 22:01 (18:31 UTC)


TAF: 見つかりません

4,000以上の空港の気象観測と天気予報(METAR報とTAF報)

利用可能な観測所は地図上に黄色い丸と赤い丸で示す。

丸の上にカーソルを重ねると観測所名を参照できる。

次にクリックすると気象観測と天気予報を参照できる。

マップの切り替え:黒色「×」印の緑ボタンをクリックして拡大、「-」印の緑ボタンをクリックして縮小、緑色の三角印をクリックして隣りの地図に切り替え


METAR-TAF: